createdAt,value
2018-08-25T00:00:20.519Z,100119.00
2018-08-25T00:02:49.660Z,100115.00
2018-08-25T00:05:18.732Z,100110.00
2018-08-25T00:07:47.790Z,100124.00
2018-08-25T00:10:16.854Z,100118.00
2018-08-25T00:12:45.931Z,100118.00
2018-08-25T00:15:15.247Z,100130.00
2018-08-25T00:17:44.261Z,100105.00
2018-08-25T00:20:13.299Z,100100.00
2018-08-25T00:22:42.434Z,100104.00
2018-08-25T00:25:11.479Z,100106.00
2018-08-25T00:27:40.552Z,100102.00
2018-08-25T00:30:14.979Z,100107.00
2018-08-25T00:32:44.122Z,100100.00
2018-08-25T00:35:13.300Z,100100.00
2018-08-25T00:37:42.448Z,100090.00
2018-08-25T00:40:11.490Z,100081.00
2018-08-25T00:42:40.550Z,100080.00
2018-08-25T00:45:09.574Z,100079.00
2018-08-25T00:47:38.649Z,100076.00
2018-08-25T00:50:07.734Z,100070.00
2018-08-25T00:52:36.804Z,100076.00
2018-08-25T00:55:06.185Z,100073.00
2018-08-25T00:57:35.379Z,100058.00
2018-08-25T01:00:04.509Z,100060.00
2018-08-25T01:02:33.592Z,100054.00
2018-08-25T01:05:02.824Z,100050.00
2018-08-25T01:07:31.927Z,100051.00
2018-08-25T01:10:01.072Z,100047.00
2018-08-25T01:12:30.364Z,100050.00
2018-08-25T01:14:59.415Z,100043.00
2018-08-25T01:17:28.449Z,100042.00
2018-08-25T01:19:57.467Z,100038.00
2018-08-25T01:22:26.521Z,100040.00
2018-08-25T01:24:55.580Z,100045.00
2018-08-25T01:27:24.746Z,100036.00
2018-08-25T01:29:53.824Z,100032.00
2018-08-25T01:32:22.973Z,100025.00
2018-08-25T01:34:52.213Z,100022.00
2018-08-25T01:37:21.323Z,100018.00
2018-08-25T01:39:50.340Z,100024.00
2018-08-25T01:42:19.453Z,100033.00
2018-08-25T01:44:48.526Z,100042.00
2018-08-25T01:47:17.592Z,100034.00
2018-08-25T01:49:46.641Z,100037.00
2018-08-25T01:52:15.663Z,100032.00
2018-08-25T01:54:44.882Z,100029.00
2018-08-25T01:57:14.234Z,100029.00
2018-08-25T01:59:43.282Z,100034.00
2018-08-25T02:02:12.372Z,100025.00
2018-08-25T02:04:41.597Z,100026.00
2018-08-25T02:07:10.685Z,100015.00
2018-08-25T02:09:39.903Z,100011.00
2018-08-25T02:12:09.109Z,100017.00
2018-08-25T02:14:38.203Z,100016.00
2018-08-25T02:17:07.961Z,100007.00
2018-08-25T02:19:37.020Z,99999.00
2018-08-25T02:22:06.068Z,99993.00
2018-08-25T02:24:35.149Z,99995.00
2018-08-25T02:27:04.395Z,99991.00
2018-08-25T02:29:33.456Z,99992.00
2018-08-25T02:32:02.514Z,99990.00
2018-08-25T02:34:31.819Z,99982.00
2018-08-25T02:37:00.876Z,99984.00
2018-08-25T02:39:29.976Z,99988.00
2018-08-25T02:41:59.003Z,100000.00
2018-08-25T02:44:28.046Z,99980.00
2018-08-25T02:46:57.110Z,99988.00
2018-08-25T02:49:26.160Z,99997.00
2018-08-25T02:51:55.201Z,99995.00
2018-08-25T02:54:24.254Z,99990.00
2018-08-25T02:56:53.616Z,100002.00
2018-08-25T02:59:22.798Z,99998.00
2018-08-25T03:01:52.071Z,99992.00
2018-08-25T03:04:21.163Z,99987.00
2018-08-25T03:06:50.259Z,99985.00
2018-08-25T03:09:19.382Z,99993.00
2018-08-25T03:11:48.426Z,99981.00
2018-08-25T03:14:17.468Z,99983.00
2018-08-25T03:16:46.514Z,99984.00
2018-08-25T03:19:15.545Z,99979.00
2018-08-25T03:21:44.559Z,99977.00
2018-08-25T03:24:13.662Z,99981.00
2018-08-25T03:26:42.724Z,99977.00
2018-08-25T03:29:11.832Z,99972.00
2018-08-25T03:31:40.928Z,99977.00
2018-08-25T03:34:09.977Z,99977.00
2018-08-25T03:36:39.072Z,99982.00
2018-08-25T03:39:10.485Z,99970.00
2018-08-25T03:41:39.612Z,99975.00
2018-08-25T03:44:09.189Z,99980.00
2018-08-25T03:46:38.263Z,99979.00
2018-08-25T03:49:07.346Z,99971.00
2018-08-25T03:51:36.553Z,99968.00
2018-08-25T03:54:05.646Z,99957.00
2018-08-25T03:56:34.664Z,99959.00
2018-08-25T03:59:03.808Z,99948.00
2018-08-25T04:01:32.940Z,99943.00
2018-08-25T04:04:02.047Z,99947.00
2018-08-25T04:06:31.457Z,99955.00
2018-08-25T04:09:00.572Z,99947.00
2018-08-25T04:11:29.737Z,99956.00
2018-08-25T04:13:58.808Z,99947.00
2018-08-25T04:16:27.927Z,99945.00
2018-08-25T04:18:56.979Z,99937.00
2018-08-25T04:21:26.033Z,99942.00
2018-08-25T04:23:55.076Z,99943.00
2018-08-25T04:26:24.144Z,99941.00
2018-08-25T04:28:53.166Z,99944.00
2018-08-25T04:31:22.234Z,99948.00
2018-08-25T04:33:51.239Z,99948.00
2018-08-25T04:36:20.313Z,99942.00
2018-08-25T04:38:49.376Z,99954.00
2018-08-25T04:41:18.514Z,99956.00
2018-08-25T04:43:47.538Z,99947.00
2018-08-25T04:46:16.554Z,99943.00
2018-08-25T04:48:45.893Z,99943.00
2018-08-25T04:51:15.454Z,99935.00
2018-08-25T04:53:44.874Z,99937.00
2018-08-25T04:56:13.906Z,99935.00
2018-08-25T04:58:43.406Z,99930.00
2018-08-25T05:01:12.467Z,99929.00
2018-08-25T05:03:41.549Z,99937.00
2018-08-25T05:06:10.765Z,99930.00
2018-08-25T05:08:39.958Z,99919.00
2018-08-25T05:11:09.054Z,99922.00
2018-08-25T05:13:38.592Z,99909.00
2018-08-25T05:16:07.672Z,99908.00
2018-08-25T05:18:36.751Z,99902.00
2018-08-25T05:21:06.202Z,99902.00
2018-08-25T05:23:35.224Z,99914.00
2018-08-25T05:26:04.349Z,99905.00
2018-08-25T05:28:33.546Z,99906.00
2018-08-25T05:31:02.583Z,99907.00
2018-08-25T05:33:31.613Z,99910.00
2018-08-25T05:36:01.000Z,99914.00
2018-08-25T05:38:30.059Z,99918.00
2018-08-25T05:40:59.287Z,99918.00
2018-08-25T05:43:28.317Z,99908.00
2018-08-25T05:45:57.418Z,99915.00
2018-08-25T05:48:26.444Z,99912.00
2018-08-25T05:50:55.521Z,99914.00
2018-08-25T05:53:24.598Z,99910.00
2018-08-25T05:55:53.654Z,99911.00
2018-08-25T05:58:22.725Z,99897.00
2018-08-25T06:00:51.765Z,99908.00
2018-08-25T06:03:20.870Z,99913.00
2018-08-25T06:05:50.007Z,99906.00
2018-08-25T06:08:19.100Z,99905.00
2018-08-25T06:10:48.309Z,99902.00
2018-08-25T06:13:17.566Z,99896.00
2018-08-25T06:15:46.693Z,99900.00
2018-08-25T06:18:18.590Z,99907.00
2018-08-25T06:20:47.751Z,99899.00
2018-08-25T06:23:16.799Z,99900.00
2018-08-25T06:25:45.895Z,99906.00
2018-08-25T06:28:15.096Z,99901.00
2018-08-25T06:30:44.206Z,99905.00
2018-08-25T06:33:13.242Z,99905.00
2018-08-25T06:35:42.291Z,99905.00
2018-08-25T06:38:11.635Z,99908.00
2018-08-25T06:40:40.728Z,99904.00
2018-08-25T06:43:09.729Z,99902.00
2018-08-25T06:45:38.814Z,99906.00
2018-08-25T06:48:07.857Z,99908.00
2018-08-25T06:50:36.923Z,99907.00
2018-08-25T06:53:06.165Z,99899.00
2018-08-25T06:55:35.219Z,99898.00
2018-08-25T06:58:04.257Z,99897.00
2018-08-25T07:00:33.349Z,99891.00
2018-08-25T07:03:02.550Z,99895.00
2018-08-25T07:05:31.678Z,99903.00
2018-08-25T07:08:00.902Z,99898.00
2018-08-25T07:10:30.082Z,99906.00
2018-08-25T07:13:00.333Z,99904.00
2018-08-25T07:15:29.491Z,99898.00
2018-08-25T07:17:58.571Z,99896.00
2018-08-25T07:20:27.847Z,99898.00
2018-08-25T07:22:56.918Z,99896.00
2018-08-25T07:25:25.982Z,99898.00
2018-08-25T07:27:55.011Z,99893.00
2018-08-25T07:30:24.048Z,99892.00
2018-08-25T07:32:53.090Z,99898.00
2018-08-25T07:35:22.195Z,99889.00
2018-08-25T07:37:51.268Z,99888.00
2018-08-25T07:40:20.357Z,99896.00
2018-08-25T07:42:49.491Z,99900.00
2018-08-25T07:45:18.679Z,99903.00
2018-08-25T07:47:47.682Z,99913.00
2018-08-25T07:50:16.752Z,99911.00
2018-08-25T07:52:45.845Z,99917.00
2018-08-25T07:55:15.138Z,99909.00
2018-08-25T07:57:44.192Z,99910.00
2018-08-25T08:00:14.201Z,99910.00
2018-08-25T08:02:43.383Z,99910.00
2018-08-25T08:05:12.487Z,99916.00
2018-08-25T08:07:41.815Z,99921.00
2018-08-25T08:10:11.766Z,99924.00
2018-08-25T08:12:40.969Z,99927.00
2018-08-25T08:15:10.332Z,99928.00
2018-08-25T08:17:39.533Z,99929.00
2018-08-25T08:20:08.631Z,99923.00
2018-08-25T08:22:37.677Z,99922.00
2018-08-25T08:25:06.774Z,99928.00
2018-08-25T08:27:36.077Z,99930.00
2018-08-25T08:30:06.100Z,99926.00
2018-08-25T08:32:35.143Z,99927.00
2018-08-25T08:35:04.231Z,99921.00
2018-08-25T08:37:33.272Z,99930.00
2018-08-25T08:40:02.357Z,99927.00
2018-08-25T08:42:31.513Z,99929.00
2018-08-25T08:45:00.696Z,99924.00
2018-08-25T08:47:29.776Z,99932.00
2018-08-25T08:49:58.884Z,99925.00
2018-08-25T08:52:27.957Z,99929.00
2018-08-25T08:54:56.962Z,99934.00
2018-08-25T08:57:26.084Z,99946.00
2018-08-25T08:59:55.150Z,99945.00
2018-08-25T09:02:24.306Z,99931.00
2018-08-25T09:04:53.417Z,99932.00
2018-08-25T09:07:22.914Z,99940.00
2018-08-25T09:09:52.040Z,99930.00
2018-08-25T09:12:21.162Z,99926.00
2018-08-25T09:14:50.306Z,99932.00
2018-08-25T09:17:19.623Z,99923.00
2018-08-25T09:19:48.886Z,99920.00
2018-08-25T09:22:17.963Z,99932.00
2018-08-25T09:24:47.053Z,99931.00
2018-08-25T09:27:16.178Z,99925.00
2018-08-25T09:29:45.155Z,99918.00
2018-08-25T09:32:14.238Z,99917.00
2018-08-25T09:34:43.351Z,99918.00
2018-08-25T09:37:12.504Z,99914.00
2018-08-25T09:39:41.571Z,99917.00
2018-08-25T09:42:10.625Z,99923.00
2018-08-25T09:44:39.750Z,99923.00
2018-08-25T09:47:08.823Z,99915.00
2018-08-25T09:49:37.932Z,99913.00
2018-08-25T09:52:06.990Z,99909.00
2018-08-25T09:54:36.046Z,99899.00
2018-08-25T09:57:05.167Z,99896.00
2018-08-25T09:59:34.269Z,99899.00
2018-08-25T10:02:03.381Z,99896.00
2018-08-25T10:04:32.595Z,99898.00
2018-08-25T10:07:01.675Z,99897.00
2018-08-25T10:09:30.843Z,99893.00
2018-08-25T10:12:00.109Z,99890.00
2018-08-25T10:14:29.495Z,99889.00
2018-08-25T10:16:58.821Z,99883.00
2018-08-25T10:19:27.991Z,99887.00
2018-08-25T10:21:57.359Z,99892.00
2018-08-25T10:24:26.495Z,99882.00
2018-08-25T10:26:55.663Z,99877.00
2018-08-25T10:29:24.718Z,99872.00
2018-08-25T10:31:53.784Z,99867.00
2018-08-25T10:34:22.875Z,99857.00
2018-08-25T10:36:51.960Z,99874.00
2018-08-25T10:39:21.034Z,99869.00
2018-08-25T10:41:50.165Z,99873.00
2018-08-25T10:44:19.178Z,99865.00
2018-08-25T10:46:48.235Z,99864.00
2018-08-25T10:49:17.338Z,99869.00
2018-08-25T10:51:46.395Z,99870.00
2018-08-25T10:54:15.539Z,99865.00
2018-08-25T10:56:44.606Z,99856.00
2018-08-25T10:59:13.729Z,99853.00
2018-08-25T11:01:42.840Z,99853.00
2018-08-25T11:04:12.106Z,99853.00
2018-08-25T11:06:41.195Z,99856.00
2018-08-25T11:09:12.943Z,99859.00
2018-08-25T11:11:42.212Z,99854.00
2018-08-25T11:14:11.614Z,99850.00
2018-08-25T11:16:41.131Z,99853.00
2018-08-25T11:19:10.313Z,99852.00
2018-08-25T11:21:39.435Z,99849.00
2018-08-25T11:24:08.694Z,99847.00
2018-08-25T11:26:37.894Z,99859.00
2018-08-25T11:29:07.147Z,99868.00
2018-08-25T11:31:36.244Z,99874.00
2018-08-25T11:34:05.290Z,99876.00
2018-08-25T11:36:34.382Z,99878.00
2018-08-25T11:39:03.466Z,99879.00
2018-08-25T11:41:32.794Z,99877.00
2018-08-25T11:44:01.925Z,99868.00
2018-08-25T11:46:31.082Z,99880.00
2018-08-25T11:49:00.286Z,99870.00
2018-08-25T11:51:29.815Z,99874.00
2018-08-25T11:53:59.389Z,99878.00
2018-08-25T11:56:29.076Z,99887.00
2018-08-25T11:58:58.127Z,99889.00
2018-08-25T12:01:28.343Z,99879.00
2018-08-25T12:03:57.571Z,99893.00
2018-08-25T12:06:27.710Z,99883.00
2018-08-25T12:08:56.808Z,99889.00
2018-08-25T12:11:26.016Z,99887.00
2018-08-25T12:13:55.377Z,99877.00
2018-08-25T12:16:24.709Z,99879.00
2018-08-25T12:18:54.700Z,99887.00
2018-08-25T12:21:23.953Z,99892.00
2018-08-25T12:23:53.293Z,99889.00
2018-08-25T12:26:22.581Z,99898.00
2018-08-25T12:31:39.740Z,99903.00
2018-08-25T12:34:09.177Z,99892.00
2018-08-25T12:36:38.339Z,99904.00
2018-08-25T12:39:10.949Z,99904.00
2018-08-25T12:41:41.266Z,99910.00
2018-08-25T12:44:10.420Z,99913.00
2018-08-25T12:46:39.658Z,99915.00
2018-08-25T12:49:09.077Z,99920.00
2018-08-25T12:51:41.665Z,99928.00
2018-08-25T12:54:13.111Z,99930.00
2018-08-25T12:56:42.294Z,99918.00
2018-08-25T12:59:13.123Z,99921.00
2018-08-25T13:01:42.711Z,99921.00
2018-08-25T13:04:11.936Z,99930.00
2018-08-25T13:06:41.020Z,99934.00
2018-08-25T13:09:11.692Z,99937.00
2018-08-25T13:11:40.983Z,99950.00
2018-08-25T13:14:10.109Z,99946.00
2018-08-25T13:16:39.277Z,99941.00
2018-08-25T13:19:08.480Z,99950.00
2018-08-25T13:21:38.459Z,99953.00
2018-08-25T13:24:08.437Z,99949.00
2018-08-25T13:26:39.128Z,99948.00
2018-08-25T13:36:03.007Z,99953.00
2018-08-25T13:38:32.781Z,99953.00
2018-08-25T13:41:03.810Z,99949.00
2018-08-25T13:43:57.993Z,99948.00
2018-08-25T13:47:02.296Z,99964.00
2018-08-25T14:01:31.629Z,99972.00
2018-08-25T14:04:00.859Z,99973.00
2018-08-25T14:06:29.901Z,99944.00
2018-08-25T14:08:58.999Z,99968.00
2018-08-25T14:11:28.109Z,99970.00
2018-08-25T14:13:57.183Z,99972.00
2018-08-25T14:16:31.743Z,99974.00
2018-08-25T14:19:00.840Z,99971.00
2018-08-25T14:21:29.892Z,99973.00
2018-08-25T14:23:58.987Z,99970.00
2018-08-25T14:26:28.068Z,99980.00
2018-08-25T14:28:57.458Z,99985.00
2018-08-25T14:31:26.734Z,99986.00
2018-08-25T14:33:55.802Z,99983.00
2018-08-25T14:36:24.864Z,99984.00
2018-08-25T14:38:56.043Z,99988.00
2018-08-25T14:41:25.075Z,99984.00
2018-08-25T14:43:54.133Z,99992.00
2018-08-25T14:46:23.197Z,99992.00
2018-08-25T14:49:16.007Z,100009.00
2018-08-25T14:51:45.130Z,100018.00
2018-08-25T14:54:14.415Z,100013.00
2018-08-25T14:56:45.175Z,100011.00
2018-08-25T14:59:15.333Z,100014.00
2018-08-25T15:01:44.634Z,100019.00
2018-08-25T15:04:14.959Z,100016.00
2018-08-25T15:06:44.116Z,100018.00
2018-08-25T15:09:14.437Z,100018.00
2018-08-25T15:11:44.765Z,100016.00
2018-08-25T15:14:14.377Z,100016.00
2018-08-25T15:16:43.544Z,100011.00
2018-08-25T15:19:12.599Z,100027.00
2018-08-25T15:21:41.676Z,100032.00
2018-08-25T15:24:10.737Z,100034.00
2018-08-25T15:26:39.833Z,100038.00
2018-08-25T15:29:08.898Z,100046.00
2018-08-25T15:31:37.937Z,100045.00
2018-08-25T15:34:08.244Z,100034.00
2018-08-25T15:36:37.340Z,100037.00
2018-08-25T15:39:12.449Z,100043.00
2018-08-25T15:41:41.547Z,100045.00
2018-08-25T15:44:10.964Z,100044.00
2018-08-25T15:46:40.106Z,100045.00
2018-08-25T15:49:09.749Z,100037.00
2018-08-25T15:51:38.833Z,100037.00
2018-08-25T15:54:08.428Z,100054.00
2018-08-25T15:56:37.481Z,100048.00
2018-08-25T15:59:06.966Z,100046.00
2018-08-25T16:01:36.403Z,100045.00
2018-08-25T16:04:05.655Z,100053.00
2018-08-25T16:06:34.698Z,100057.00
2018-08-25T16:09:04.591Z,100051.00
2018-08-25T16:11:33.708Z,100053.00
2018-08-25T16:14:02.787Z,100055.00
2018-08-25T16:16:31.946Z,100063.00
2018-08-25T16:19:02.051Z,100054.00
2018-08-25T16:21:31.177Z,100059.00
2018-08-25T16:24:00.618Z,100056.00
2018-08-25T16:26:29.847Z,100057.00
2018-08-25T16:28:59.251Z,100065.00
2018-08-25T16:31:28.662Z,100069.00
2018-08-25T16:33:58.280Z,100066.00
2018-08-25T16:36:27.848Z,100070.00
2018-08-25T16:38:57.100Z,100078.00
2018-08-25T16:41:26.245Z,100080.00
2018-08-25T16:43:55.345Z,100079.00
2018-08-25T16:46:24.409Z,100079.00
2018-08-25T16:48:53.460Z,100088.00
2018-08-25T16:51:22.630Z,100090.00
2018-08-25T16:53:51.727Z,100091.00
2018-08-25T16:56:20.773Z,100091.00
2018-08-25T16:58:50.383Z,100077.00
2018-08-25T17:01:19.442Z,100082.00
2018-08-25T17:03:48.727Z,100085.00
2018-08-25T17:06:17.835Z,100085.00
2018-08-25T17:08:47.252Z,100087.00
2018-08-25T17:11:16.346Z,100092.00
2018-08-25T17:13:45.635Z,100094.00
2018-08-25T17:16:15.303Z,100094.00
2018-08-25T17:18:44.830Z,100100.00
2018-08-25T17:21:14.024Z,100103.00
2018-08-25T17:23:43.499Z,100104.00
2018-08-25T17:26:12.691Z,100106.00
2018-08-25T17:28:41.974Z,100112.00
2018-08-25T17:31:11.264Z,100102.00
2018-08-25T17:33:40.434Z,100115.00
2018-08-25T17:36:09.606Z,100109.00
2018-08-25T17:38:38.718Z,100105.00
2018-08-25T17:41:07.833Z,100118.00
2018-08-25T17:43:36.970Z,100113.00
2018-08-25T17:46:06.057Z,100117.00
2018-08-25T17:48:36.206Z,100121.00
2018-08-25T17:51:05.318Z,100116.00
2018-08-25T17:53:37.495Z,100119.00
2018-08-25T17:56:06.968Z,100124.00
2018-08-25T17:58:37.669Z,100126.00
2018-08-25T18:01:08.390Z,100127.00
2018-08-25T18:03:38.639Z,100132.00
2018-08-25T18:06:07.713Z,100134.00
2018-08-25T18:08:36.813Z,100136.00
2018-08-25T18:11:06.482Z,100137.00
2018-08-25T18:13:36.627Z,100144.00
2018-08-25T18:16:06.292Z,100139.00
2018-08-25T18:18:36.462Z,100140.00
2018-08-25T18:21:06.348Z,100109.00
2018-08-25T18:23:36.387Z,100148.00
2018-08-25T18:26:05.875Z,100146.00
2018-08-25T18:28:35.907Z,100150.00
2018-08-25T18:31:05.027Z,100152.00
2018-08-25T18:39:40.406Z,100159.00
2018-08-25T18:42:09.888Z,100162.00
2018-08-25T18:44:39.166Z,100164.00
2018-08-25T18:47:08.508Z,100167.00
2018-08-25T18:49:37.857Z,100156.00
2018-08-25T18:52:07.844Z,100165.00
2018-08-25T18:54:37.075Z,100166.00
2018-08-25T18:57:06.705Z,100165.00
2018-08-25T18:59:36.397Z,100174.00
2018-08-25T19:02:05.896Z,100180.00
2018-08-25T19:04:34.811Z,100184.00
2018-08-25T19:07:03.995Z,100190.00
2018-08-25T19:09:33.118Z,100199.00
2018-08-25T19:12:03.306Z,100210.00
2018-08-25T19:14:32.568Z,100213.00
2018-08-25T19:17:01.722Z,100212.00
2018-08-25T19:19:35.456Z,100215.00
2018-08-25T19:22:04.551Z,100217.00
2018-08-25T19:24:33.984Z,100228.00
2018-08-25T19:27:05.872Z,100228.00
2018-08-25T19:29:35.129Z,100237.00
2018-08-25T19:32:04.329Z,100231.00
2018-08-25T19:34:33.565Z,100234.00
2018-08-25T19:37:03.621Z,100240.00
2018-08-25T19:39:34.909Z,100239.00
2018-08-25T19:42:04.155Z,100238.00
2018-08-25T19:44:33.261Z,100246.00
2018-08-25T19:47:02.518Z,100241.00
2018-08-25T19:49:31.907Z,100245.00
2018-08-25T19:52:01.041Z,100240.00
2018-08-25T19:54:30.222Z,100247.00
2018-08-25T19:56:59.620Z,100243.00
2018-08-25T19:59:31.076Z,100251.00
2018-08-25T20:02:23.721Z,100238.00
2018-08-25T20:04:55.048Z,100252.00
2018-08-25T20:07:43.607Z,100244.00
2018-08-25T20:10:14.028Z,100254.00
2018-08-25T20:12:43.212Z,100252.00
2018-08-25T20:15:12.378Z,100255.00
2018-08-25T20:17:41.663Z,100252.00
2018-08-25T20:20:10.937Z,100256.00
2018-08-25T20:22:40.147Z,100263.00
2018-08-25T20:25:09.651Z,100267.00
2018-08-25T20:27:38.932Z,100271.00
2018-08-25T20:30:09.756Z,100272.00
2018-08-25T20:32:39.095Z,100276.00
2018-08-25T20:35:08.209Z,100283.00
2018-08-25T20:37:37.593Z,100273.00
2018-08-25T20:40:06.779Z,100265.00
2018-08-25T20:42:37.151Z,100259.00
2018-08-25T20:45:07.085Z,100267.00
2018-08-25T20:47:36.194Z,100262.00
2018-08-25T20:50:06.648Z,100273.00
2018-08-25T20:52:36.112Z,100269.00
2018-08-25T20:55:05.602Z,100269.00
2018-08-25T20:57:34.868Z,100273.00
2018-08-25T21:00:04.869Z,100267.00
2018-08-25T21:02:34.588Z,100281.00
2018-08-25T21:05:04.224Z,100284.00
2018-08-25T21:07:33.562Z,100284.00
2018-08-25T21:10:03.116Z,100287.00
2018-08-25T21:12:32.476Z,100297.00
2018-08-25T21:15:01.998Z,100301.00
2018-08-25T21:17:31.526Z,100299.00
2018-08-25T21:20:00.947Z,100308.00
2018-08-25T21:22:30.113Z,100314.00
2018-08-25T21:24:59.311Z,100305.00
2018-08-25T21:27:28.582Z,100299.00
2018-08-25T21:29:57.881Z,100301.00
2018-08-25T21:32:27.062Z,100310.00
2018-08-25T21:34:56.307Z,100301.00
2018-08-25T21:37:25.603Z,100315.00
2018-08-25T21:39:54.718Z,100323.00
2018-08-25T21:42:24.065Z,100325.00
2018-08-25T21:44:53.210Z,100334.00
2018-08-25T21:47:22.308Z,100343.00
2018-08-25T21:49:51.618Z,100344.00
2018-08-25T21:52:20.812Z,100354.00
2018-08-25T21:54:50.043Z,100354.00
2018-08-25T21:57:19.272Z,100355.00
2018-08-25T21:59:48.432Z,100355.00
2018-08-25T22:02:17.855Z,100352.00
2018-08-25T22:04:47.355Z,100360.00
2018-08-25T22:07:16.485Z,100367.00
2018-08-25T22:09:45.679Z,100367.00
2018-08-25T22:12:14.845Z,100368.00
2018-08-25T22:14:44.032Z,100359.00
2018-08-25T22:17:13.389Z,100370.00
2018-08-25T22:19:49.150Z,100372.00
2018-08-25T22:22:18.209Z,100372.00
2018-08-25T22:24:47.387Z,100372.00
2018-08-25T22:27:16.579Z,100376.00
2018-08-25T22:29:45.862Z,100382.00
2018-08-25T22:32:15.182Z,100381.00
2018-08-25T22:34:44.312Z,100384.00
2018-08-25T22:37:13.584Z,100384.00
2018-08-25T22:39:42.866Z,100394.00
2018-08-25T22:42:12.017Z,100382.00
2018-08-25T22:44:41.130Z,100382.00
2018-08-25T22:47:10.379Z,100383.00
2018-08-25T22:49:39.577Z,100386.00
2018-08-25T22:52:08.712Z,100376.00
2018-08-25T22:54:38.234Z,100379.00
2018-08-25T22:57:07.501Z,100390.00
2018-08-25T22:59:51.616Z,100384.00
2018-08-25T23:02:35.325Z,100381.00
2018-08-25T23:05:05.867Z,100391.00
2018-08-25T23:07:35.123Z,100384.00
2018-08-25T23:10:04.843Z,100388.00
2018-08-25T23:12:34.531Z,100392.00
2018-08-25T23:15:03.790Z,100384.00
2018-08-25T23:17:32.848Z,100386.00
2018-08-25T23:20:01.902Z,100388.00
2018-08-25T23:22:30.969Z,100384.00
2018-08-25T23:25:00.014Z,100382.00
2018-08-25T23:27:29.107Z,100387.00
2018-08-25T23:29:58.199Z,100387.00
2018-08-25T23:32:27.287Z,100387.00
2018-08-25T23:34:56.383Z,100391.00
2018-08-25T23:37:25.458Z,100390.00
2018-08-25T23:39:54.639Z,100395.00
2018-08-25T23:42:23.825Z,100391.00
2018-08-25T23:44:52.999Z,100390.00
2018-08-25T23:47:22.074Z,100387.00
2018-08-25T23:49:51.479Z,100389.00
2018-08-25T23:52:20.520Z,100390.00
2018-08-25T23:54:49.569Z,100386.00
2018-08-25T23:57:18.594Z,100399.00
2018-08-25T23:59:47.706Z,100391.00
